Gerd Maersk — OYGM2 — position and weather

sailwx.info

Track history (hours):
 
Tides and Currents Weather Stations Pressure Air Temp Water Temp Dewpoint Dewpoint Depression Visibility Wind Speed Wind Dir Waves Ship Positions

Gerd Maersk

Last reported at 2014-Sep-02 14:16 UTC. Time now 2014-Sep-02 23:48 UTC.
Position N 22°55' E 116°55'.

Length 367 m; draft 12.5 m.

Type: Ship (hazmat cat A). MMSI: 220415000.

Date/timePositionNaut miles runAvg speedWind from/ knotsBaromVisibWave heightAir tempDewpointWater temp
2014-Sep-02 14:16N 22°55' E 116°55'1318.6
2014-Sep-02 13:33N 23°03' E 117°06'2019.2
2014-Sep-02 12:32N 23°15' E 117°24'1818.5
2014-Sep-02 11:33N 23°27' E 117°38'1818.4
2014-Sep-02 10:33N 23°39' E 117°53'1918.7
2014-Sep-02 09:33N 23°50' E 118°10'1918.9
2014-Sep-02 08:33N 24°02' E 118°26'1918.8
2014-Sep-02 07:33N 24°15' E 118°41'1918.5
2014-Sep-02 06:33N 24°26' E 118°56'1817.7
2014-Sep-02 05:33N 24°37' E 119°12'1817.7
2014-Sep-02 04:33N 24°49' E 119°27'1717.6
2014-Sep-02 03:33N 24°59' E 119°42'1817.6
2014-Sep-02 02:33N 25°13' E 119°55'1817.6
2014-Sep-02 01:31N 25°27' E 120°08'1717.7
2014-Sep-02 00:33N 25°40' E 120°20'26717.5
2014-Sep-01 09:14N 29°32' E 122°50'1818.0
2014-Sep-01 08:15N 29°48' E 122°57'3216.9
2014-Sep-01 06:23N 30°20' E 122°57'1517.5
2014-Sep-01 05:33N 30°28' E 122°43'1716.6
2014-Sep-01 04:33N 30°32' E 122°24'1212.1
2014-Sep-01 03:33N 30°34' E 122°10'8 0.6
2014-Aug-31 13:33N 30°38' E 122°03'8 8.4
2014-Aug-31 12:33N 30°34' E 122°11'7 7.1
2014-Aug-31 11:33N 30°33' E 122°19'8 7.8
2014-Aug-31 10:33N 30°31' E 122°28'7 7.2
2014-Aug-31 09:33N 30°30' E 122°36'6 5.8
2014-Aug-31 08:33N 30°26' E 122°41'1 0.5
2014-Aug-31 07:33N 30°26' E 122°41'0 0.1
2014-Aug-31 06:32N 30°26' E 122°41'0 0.0
2014-Aug-31 05:33N 30°26' E 122°41'4 4.0
2014-Aug-31 04:33N 30°23' E 122°44'1716.2
2014-Aug-31 03:31N 30°07' E 122°49'1915.7
2014-Aug-31 02:18N 29°49' E 122°39'7 9.3
2014-Aug-31 01:33N 29°46' E 122°32'1111.0
2014-Aug-31 00:33N 29°45' E 122°19'1111.5
2014-Aug-30 23:33N 29°54' E 122°11'1313.3
2014-Aug-30 22:33N 29°57' E 121°56'5 4.8
2014-Aug-30 21:33N 29°57' E 121°50'0 0.0
2014-Aug-30 20:33N 29°57' E 121°50'0 0.0
2014-Aug-30 19:33N 29°57' E 121°50'0 0.0
2014-Aug-30 18:33N 29°57' E 121°50'0 0.0
2014-Aug-30 17:33N 29°57' E 121°50'0 0.0
2014-Aug-30 16:33N 29°57' E 121°50'0 0.0
2014-Aug-30 15:33N 29°57' E 121°50'0 0.0
2014-Aug-30 14:33N 29°57' E 121°50'0 0.0
2014-Aug-30 13:33N 29°57' E 121°50'0 0.0
2014-Aug-30 12:33N 29°57' E 121°50'0 0.0
2014-Aug-30 11:33N 29°57' E 121°50'0 0.0
2014-Aug-30 10:33N 29°57' E 121°50'0 0.0
2014-Aug-30 09:33N 29°57' E 121°50'0 0.0
2014-Aug-30 08:33N 29°57' E 121°50'0 0.0
2014-Aug-30 07:33N 29°57' E 121°50'0 0.0
2014-Aug-30 06:33N 29°57' E 121°50'0 0.0
2014-Aug-30 05:33N 29°57' E 121°50'0 0.0
2014-Aug-30 04:33N 29°57' E 121°50'6 5.7
2014-Aug-30 03:33N 29°59' E 121°56'1413.6
2014-Aug-30 02:33N 29°54' E 122°11'1110.8
2014-Aug-30 01:33N 29°46' E 122°19'1413.9
2014-Aug-30 00:33N 29°48' E 122°35'1 0.5
2014-Aug-29 23:18N 29°47' E 122°35'0 0.1
2014-Aug-29 22:30N 29°47' E 122°35'0 0.1
2014-Aug-29 21:30N 29°47' E 122°35'0 0.1
2014-Aug-29 20:30N 29°47' E 122°35'0 0.1
2014-Aug-29 19:30N 29°47' E 122°35'0 0.1
2014-Aug-29 18:30N 29°47' E 122°35'0 0.1
2014-Aug-29 17:30N 29°48' E 122°35'0 0.1
2014-Aug-29 16:18N 29°48' E 122°35'0 0.1
2014-Aug-29 15:18N 29°48' E 122°35'0 0.1
2014-Aug-29 14:24N 29°48' E 122°35'0 0.1
2014-Aug-29 13:24N 29°47' E 122°35'0 0.1
2014-Aug-29 11:30N 29°47' E 122°35'0 0.1
2014-Aug-29 10:30N 29°47' E 122°35'0 0.1
2014-Aug-29 09:18N 29°47' E 122°35'0 0.1
2014-Aug-29 08:30N 29°47' E 122°35'0 0.0
2014-Aug-29 07:30N 29°47' E 122°35'0 0.1
2014-Aug-29 06:30N 29°47' E 122°35'0 0.2
2014-Aug-29 05:24N 29°48' E 122°35'0 0.0
2014-Aug-29 04:24N 29°48' E 122°35'2 1.8
2014-Aug-29 03:32N 29°48' E 122°33'5 5.6
2014-Aug-29 02:33N 29°47' E 122°27'7 7.4
2014-Aug-29 01:34N 29°50' E 122°35'8 8.1
2014-Aug-29 00:33N 29°54' E 122°43'1816.4
2014-Aug-28 23:29N 30°06' E 122°58'3315.6
2014-Aug-28 21:20N 30°40' E 123°03'1316.2
2014-Aug-28 20:33N 30°52' E 123°01'2216.3
2014-Aug-28 19:14N 31°14' E 122°59'30913.4
2014-Aug-27 20:04N 35°58' E 120°34'510.4
2014-Aug-27 19:33N 35°59' E 120°28'1010.2
2014-Aug-27 18:33N 36°02' E 120°15'3 0.2
2014-Aug-27 03:13N 36°00' E 120°12'3 0.4
2014-Aug-26 21:12N 36°02' E 120°15'7 9.6
2014-Aug-26 20:29N 36°01' E 120°23'5 5.6
2014-Aug-26 19:33N 36°00' E 120°30'6 5.5
2014-Aug-26 18:33N 35°59' E 120°36'7 6.3
2014-Aug-26 17:29N 35°57' E 120°44'15 6.7
2014-Aug-26 15:19N 35°45' E 120°55'810.0
2014-Aug-26 14:33N 35°39' E 121°00'11 8.9
2014-Aug-26 13:22N 35°33' E 121°11'  
Track history (hours):
 
Tides and Currents Weather Stations Pressure Air Temp Water Temp Dewpoint Dewpoint Depression Visibility Wind Speed Wind Dir Waves Ship Positions

Gerd Maersk

Last reported at 2014-Sep-02 14:16 UTC. Time now 2014-Sep-02 23:48 UTC.
Position N 22°55' E 116°55'.

Length 367 m; draft 12.5 m.

Type: Ship (hazmat cat A). MMSI: 220415000.

Date/timePositionNaut miles runAvg speedWind from/ knotsBaromVisibWave heightAir tempDewpointWater temp
2014-Sep-02 14:16N 22°55' E 116°55'1318.6
2014-Sep-02 13:33N 23°03' E 117°06'2019.2
2014-Sep-02 12:32N 23°15' E 117°24'1818.5
2014-Sep-02 11:33N 23°27' E 117°38'1818.4
2014-Sep-02 10:33N 23°39' E 117°53'1918.7
2014-Sep-02 09:33N 23°50' E 118°10'1918.9
2014-Sep-02 08:33N 24°02' E 118°26'1918.8
2014-Sep-02 07:33N 24°15' E 118°41'1918.5
2014-Sep-02 06:33N 24°26' E 118°56'1817.7
2014-Sep-02 05:33N 24°37' E 119°12'1817.7
2014-Sep-02 04:33N 24°49' E 119°27'1717.6
2014-Sep-02 03:33N 24°59' E 119°42'1817.6
2014-Sep-02 02:33N 25°13' E 119°55'1817.6
2014-Sep-02 01:31N 25°27' E 120°08'1717.7
2014-Sep-02 00:33N 25°40' E 120°20'26717.5
2014-Sep-01 09:14N 29°32' E 122°50'1818.0
2014-Sep-01 08:15N 29°48' E 122°57'3216.9
2014-Sep-01 06:23N 30°20' E 122°57'1517.5
2014-Sep-01 05:33N 30°28' E 122°43'1716.6
2014-Sep-01 04:33N 30°32' E 122°24'1212.1
2014-Sep-01 03:33N 30°34' E 122°10'8 0.6
2014-Aug-31 13:33N 30°38' E 122°03'8 8.4
2014-Aug-31 12:33N 30°34' E 122°11'7 7.1
2014-Aug-31 11:33N 30°33' E 122°19'8 7.8
2014-Aug-31 10:33N 30°31' E 122°28'7 7.2
2014-Aug-31 09:33N 30°30' E 122°36'6 5.8
2014-Aug-31 08:33N 30°26' E 122°41'1 0.5
2014-Aug-31 07:33N 30°26' E 122°41'0 0.1
2014-Aug-31 06:32N 30°26' E 122°41'0 0.0
2014-Aug-31 05:33N 30°26' E 122°41'4 4.0
2014-Aug-31 04:33N 30°23' E 122°44'1716.2
2014-Aug-31 03:31N 30°07' E 122°49'1915.7
2014-Aug-31 02:18N 29°49' E 122°39'7 9.3
2014-Aug-31 01:33N 29°46' E 122°32'1111.0
2014-Aug-31 00:33N 29°45' E 122°19'1111.5
2014-Aug-30 23:33N 29°54' E 122°11'1313.3
2014-Aug-30 22:33N 29°57' E 121°56'5 4.8
2014-Aug-30 21:33N 29°57' E 121°50'0 0.0
2014-Aug-30 20:33N 29°57' E 121°50'0 0.0
2014-Aug-30 19:33N 29°57' E 121°50'0 0.0
2014-Aug-30 18:33N 29°57' E 121°50'0 0.0
2014-Aug-30 17:33N 29°57' E 121°50'0 0.0
2014-Aug-30 16:33N 29°57' E 121°50'0 0.0
2014-Aug-30 15:33N 29°57' E 121°50'0 0.0
2014-Aug-30 14:33N 29°57' E 121°50'0 0.0
2014-Aug-30 13:33N 29°57' E 121°50'0 0.0
2014-Aug-30 12:33N 29°57' E 121°50'0 0.0
2014-Aug-30 11:33N 29°57' E 121°50'0 0.0
2014-Aug-30 10:33N 29°57' E 121°50'0 0.0
2014-Aug-30 09:33N 29°57' E 121°50'0 0.0
2014-Aug-30 08:33N 29°57' E 121°50'0 0.0
2014-Aug-30 07:33N 29°57' E 121°50'0 0.0
2014-Aug-30 06:33N 29°57' E 121°50'0 0.0
2014-Aug-30 05:33N 29°57' E 121°50'0 0.0
2014-Aug-30 04:33N 29°57' E 121°50'6 5.7
2014-Aug-30 03:33N 29°59' E 121°56'1413.6
2014-Aug-30 02:33N 29°54' E 122°11'1110.8
2014-Aug-30 01:33N 29°46' E 122°19'1413.9
2014-Aug-30 00:33N 29°48' E 122°35'1 0.5
2014-Aug-29 23:18N 29°47' E 122°35'0 0.1
2014-Aug-29 22:30N 29°47' E 122°35'0 0.1
2014-Aug-29 21:30N 29°47' E 122°35'0 0.1
2014-Aug-29 20:30N 29°47' E 122°35'0 0.1
2014-Aug-29 19:30N 29°47' E 122°35'0 0.1
2014-Aug-29 18:30N 29°47' E 122°35'0 0.1
2014-Aug-29 17:30N 29°48' E 122°35'0 0.1
2014-Aug-29 16:18N 29°48' E 122°35'0 0.1
2014-Aug-29 15:18N 29°48' E 122°35'0 0.1
2014-Aug-29 14:24N 29°48' E 122°35'0 0.1
2014-Aug-29 13:24N 29°47' E 122°35'0 0.1
2014-Aug-29 11:30N 29°47' E 122°35'0 0.1
2014-Aug-29 10:30N 29°47' E 122°35'0 0.1
2014-Aug-29 09:18N 29°47' E 122°35'0 0.1
2014-Aug-29 08:30N 29°47' E 122°35'0 0.0
2014-Aug-29 07:30N 29°47' E 122°35'0 0.1
2014-Aug-29 06:30N 29°47' E 122°35'0 0.2
2014-Aug-29 05:24N 29°48' E 122°35'0 0.0
2014-Aug-29 04:24N 29°48' E 122°35'2 1.8
2014-Aug-29 03:32N 29°48' E 122°33'5 5.6
2014-Aug-29 02:33N 29°47' E 122°27'7 7.4
2014-Aug-29 01:34N 29°50' E 122°35'8 8.1
2014-Aug-29 00:33N 29°54' E 122°43'1816.4
2014-Aug-28 23:29N 30°06' E 122°58'3315.6
2014-Aug-28 21:20N 30°40' E 123°03'1316.2
2014-Aug-28 20:33N 30°52' E 123°01'2216.3
2014-Aug-28 19:14N 31°14' E 122°59'30913.4
2014-Aug-27 20:04N 35°58' E 120°34'510.4
2014-Aug-27 19:33N 35°59' E 120°28'1010.2
2014-Aug-27 18:33N 36°02' E 120°15'3 0.2
2014-Aug-27 03:13N 36°00' E 120°12'3 0.4
2014-Aug-26 21:12N 36°02' E 120°15'7 9.6
2014-Aug-26 20:29N 36°01' E 120°23'5 5.6
2014-Aug-26 19:33N 36°00' E 120°30'6 5.5
2014-Aug-26 18:33N 35°59' E 120°36'7 6.3
2014-Aug-26 17:29N 35°57' E 120°44'15 6.7
2014-Aug-26 15:19N 35°45' E 120°55'810.0
2014-Aug-26 14:33N 35°39' E 121°00'11 8.9
2014-Aug-26 13:22N 35°33' E 121°11'  

Dump ship's entire track history